Terminal Aerodrome Forecast
Issued by NWS St Louis, MO

Home | Current Version | Previous Version | Text Only | Print | Product List | Glossary On
Versions: 1 2 3 4 5 6 7 8 9 10 11 12 13 14 15 16 17 18 19 20 21 22 23 24 25
932
FTUS43 KLSX 201721
TAFSTL
TAF
KSTL 201721Z 2018/2124 28010G18KT P6SM FEW150
     FM210000 32005KT P6SM FEW050
     FM210300 01009KT P6SM FEW050
     FM211600 05012KT P6SM SCT150=

USA.gov is the U.S. government's official web portal to all federal, state and local government web resources and services.